Time;durP1;ratioP1;P1;durP2;ratioP2;P2;SDS_P1;SDS_P2;PMS_P1;PMS_P2;Temp;Humidity;BMP_temperature;BMP_pressure;BME280_temperature;BME280_humidity;BME280_pressure;Samples;Min_cycle;Max_cycle;Signal;HPM_P1;HPM_P2
2021/01/18 00:01:51;;;;;;;;;;;5.80;99.90;;;;;;5119473;28;20002;-55
2021/01/18 00:04:17;;;;;;;;;;;5.80;99.90;;;;;;5120680;28;19904;-54
2021/01/18 00:06:42;;;;;;;;;;;5.80;99.90;;;;;;5120468;28;19908;-54
2021/01/18 00:09:08;;;;;;;;;;;5.80;99.90;;;;;;5120707;28;19915;-54
2021/01/18 00:11:33;;;;;;;;;;;5.70;99.90;;;;;;5120735;28;19908;-54
2021/01/18 00:13:59;;;;;;;;;;;5.70;99.90;;;;;;5120519;28;19915;-54
2021/01/18 00:16:24;;;;;;;;;;;5.60;99.90;;;;;;5120440;28;19914;-55
2021/01/18 00:18:50;;;;;;;;;;;5.50;99.90;;;;;;5120633;28;20048;-55
2021/01/18 00:21:16;;;;;;;;;;;5.50;99.90;;;;;;5102583;28;20328;-55
2021/01/18 00:23:42;;;;;;;;;;;5.40;99.90;;;;;;5120543;28;19910;-56
2021/01/18 00:26:07;;;;;;;;;;;5.40;99.90;;;;;;5102856;28;20227;-55
2021/01/18 00:28:33;;;;;;;;;;;5.40;99.90;;;;;;5100232;28;19911;-55
2021/01/18 00:30:59;;;;;;;;;;;5.30;99.90;;;;;;5100032;28;19904;-55
2021/01/18 00:33:25;;;;;;;;;;;5.30;99.90;;;;;;5099737;28;19960;-55
2021/01/18 00:35:50;;;;;;;;;;;5.30;99.90;;;;;;5099541;28;19943;-55
2021/01/18 00:38:16;;;;;;;;;;;5.30;99.90;;;;;;5100005;28;19915;-55
2021/01/18 00:40:41;;;;;;;;;;;5.30;99.90;;;;;;5099621;28;19996;-55
2021/01/18 00:43:07;;;;;;;;;;;5.40;99.90;;;;;;5099752;28;20020;-54
2021/01/18 00:45:33;;;;;;;;;;;5.40;99.90;;;;;;5099520;28;20256;-54
2021/01/18 00:47:58;;;;;;;;;;;5.40;99.90;;;;;;5099536;28;19908;-55
2021/01/18 00:50:25;;;;;;;;;;;5.50;99.90;;;;;;5099293;28;19965;-55
2021/01/18 00:52:51;;;;;;;;;;;5.50;99.90;;;;;;5119588;28;19965;-55
2021/01/18 00:55:17;;;;;;;;;;;5.60;99.90;;;;;;5119678;28;19907;-55
2021/01/18 00:57:44;;;;;;;;;;;5.60;99.90;;;;;;5120040;28;20226;-55
2021/01/18 01:00:13;;;;;;;;;;;5.50;99.90;;;;;;5119236;28;19904;-55
2021/01/18 01:02:39;;;;;;;;;;;5.50;99.90;;;;;;5120068;28;19946;-55
2021/01/18 01:05:05;;;;;;;;;;;5.40;99.90;;;;;;5119804;28;19939;-55
2021/01/18 01:07:35;;;;;;;;;;;5.30;99.90;;;;;;5120036;28;20212;-55
2021/01/18 01:10:00;;;;;;;;;;;5.20;99.90;;;;;;5119956;28;19904;-55
2021/01/18 01:12:26;;;;;;;;;;;5.20;99.90;;;;;;5119642;28;19934;-54
2021/01/18 01:14:51;;;;;;;;;;;5.20;99.90;;;;;;5119462;28;19907;-53
2021/01/18 01:17:17;;;;;;;;;;;5.20;99.90;;;;;;5119648;28;20290;-53
2021/01/18 01:19:42;;;;;;;;;;;5.10;99.90;;;;;;5119325;28;19911;-54
2021/01/18 01:22:08;;;;;;;;;;;5.10;99.90;;;;;;5119076;28;19908;-54
2021/01/18 01:24:34;;;;;;;;;;;5.10;99.90;;;;;;5118985;28;19903;-54
2021/01/18 01:26:59;;;;;;;;;;;5.20;99.90;;;;;;5117850;28;19918;-54
2021/01/18 01:29:25;;;;;;;;;;;5.20;99.90;;;;;;5119055;28;20213;-54
2021/01/18 01:31:50;;;;;;;;;;;5.20;99.90;;;;;;5118645;28;19907;-54
2021/01/18 01:34:16;;;;;;;;;;;5.30;99.90;;;;;;5119582;28;20180;-54
2021/01/18 01:36:42;;;;;;;;;;;5.30;99.90;;;;;;5119099;28;19908;-55
2021/01/18 01:39:08;;;;;;;;;;;5.30;99.90;;;;;;5119435;28;20279;-56
2021/01/18 01:41:33;;;;;;;;;;;5.20;99.90;;;;;;5117845;28;19908;-56
2021/01/18 01:43:59;;;;;;;;;;;5.20;99.90;;;;;;5118803;28;20306;-55
2021/01/18 01:46:24;;;;;;;;;;;5.20;99.90;;;;;;5119134;28;20290;-55
2021/01/18 01:48:50;;;;;;;;;;;5.20;99.90;;;;;;5119194;28;19908;-56
2021/01/18 01:51:15;;;;;;;;;;;5.20;99.90;;;;;;5118799;28;19920;-55
2021/01/18 01:53:41;;;;;;;;;;;5.20;99.90;;;;;;5100419;28;20105;-55
2021/01/18 01:56:07;;;;;;;;;;;5.30;99.90;;;;;;5118775;28;19918;-55
2021/01/18 01:58:33;;;;;;;;;;;5.30;99.90;;;;;;5119146;28;19965;-55
2021/01/18 02:00:58;;;;;;;;;;;5.30;99.90;;;;;;5118536;28;20386;-54
2021/01/18 02:03:40;;;;;;;;;;;5.40;99.90;;;;;;5118979;28;20222;-54
2021/01/18 02:06:07;;;;;;;;;;;5.40;99.90;;;;;;5118752;28;19910;-54
2021/01/18 02:08:32;;;;;;;;;;;5.50;99.90;;;;;;5118780;28;19907;-56
2021/01/18 02:10:58;;;;;;;;;;;5.50;99.90;;;;;;5099955;28;19910;-56
2021/01/18 02:13:36;;;;;;;;;;;5.50;99.90;;;;;;5118675;28;19916;-56
2021/01/18 02:16:10;;;;;;;;;;;5.40;99.90;;;;;;5118397;28;19904;-56
2021/01/18 02:18:51;;;;;;;;;;;5.40;99.90;;;;;;5118394;28;19969;-55
2021/01/18 02:21:22;;;;;;;;;;;5.30;99.90;;;;;;5117818;28;19910;-54
2021/01/18 02:24:07;;;;;;;;;;;5.20;99.90;;;;;;5117911;28;19991;-54
2021/01/18 02:26:54;;;;;;;;;;;5.10;99.90;;;;;;5097797;28;20242;-54
2021/01/18 02:29:39;;;;;;;;;;;5.00;99.90;;;;;;5097790;28;20303;-54
2021/01/18 02:32:25;;;;;;;;;;;5.00;99.90;;;;;;5097453;28;20266;-54
2021/01/18 02:35:17;;;;;;;;;;;4.90;99.90;;;;;;5083201;28;19963;-54
2021/01/18 02:37:43;;;;;;;;;;;4.90;99.90;;;;;;5107882;28;19904;-54
2021/01/18 02:40:08;;;;;;;;;;;4.80;99.90;;;;;;5118311;28;19904;-54
2021/01/18 02:42:39;;;;;;;;;;;4.80;99.90;;;;;;5117417;28;20290;-54
2021/01/18 02:45:05;;;;;;;;;;;4.80;99.90;;;;;;5117692;28;20048;-54
2021/01/18 02:47:32;;;;;;;;;;;4.70;99.90;;;;;;5117659;28;19958;-54
2021/01/18 02:50:00;;;;;;;;;;;4.70;99.90;;;;;;5117867;28;19942;-55
2021/01/18 02:52:26;;;;;;;;;;;4.60;99.90;;;;;;5117129;28;20302;-54
2021/01/18 02:54:52;;;;;;;;;;;4.60;99.90;;;;;;5117976;28;19953;-55
2021/01/18 02:57:19;;;;;;;;;;;4.60;99.90;;;;;;5117585;28;19930;-55
2021/01/18 02:59:45;;;;;;;;;;;4.50;99.90;;;;;;5117677;28;19903;-55
2021/01/18 03:02:10;;;;;;;;;;;4.40;99.90;;;;;;5117502;28;19914;-55
2021/01/18 03:04:42;;;;;;;;;;;4.40;99.90;;;;;;5117836;28;19903;-55
2021/01/18 03:07:26;;;;;;;;;;;4.40;99.90;;;;;;5117081;28;19994;-55
2021/01/18 03:10:08;;;;;;;;;;;4.30;99.90;;;;;;5117611;28;19935;-55
2021/01/18 03:12:56;;;;;;;;;;;4.30;99.90;;;;;;5117434;28;19907;-55
2021/01/18 03:15:24;;;;;;;;;;;4.40;99.90;;;;;;5103848;28;19957;-55
2021/01/18 03:17:51;;;;;;;;;;;4.50;99.90;;;;;;5117272;28;19915;-55
2021/01/18 03:20:18;;;;;;;;;;;4.50;99.90;;;;;;5116994;28;20198;-55
2021/01/18 03:22:44;;;;;;;;;;;4.50;99.90;;;;;;5116728;28;20302;-55
2021/01/18 03:25:09;;;;;;;;;;;4.50;99.90;;;;;;5107847;28;19976;-55
2021/01/18 03:27:47;;;;;;;;;;;4.50;99.90;;;;;;5096684;28;19958;-55
2021/01/18 03:30:13;;;;;;;;;;;4.60;99.90;;;;;;5095798;28;19904;-55
2021/01/18 03:32:39;;;;;;;;;;;4.50;99.90;;;;;;5116122;28;19911;-55
2021/01/18 03:35:04;;;;;;;;;;;4.50;99.90;;;;;;5116675;28;19908;-55
2021/01/18 03:37:30;;;;;;;;;;;4.50;99.90;;;;;;5117108;28;20347;-55
2021/01/18 03:39:55;;;;;;;;;;;4.50;99.90;;;;;;5116581;28;19907;-55
2021/01/18 03:42:21;;;;;;;;;;;4.60;99.90;;;;;;5117195;28;19942;-55
2021/01/18 03:44:47;;;;;;;;;;;4.70;99.90;;;;;;5116574;28;19908;-55
2021/01/18 03:47:12;;;;;;;;;;;4.70;99.90;;;;;;5116377;28;19908;-55
2021/01/18 03:49:38;;;;;;;;;;;4.80;99.90;;;;;;5116903;28;19968;-55
2021/01/18 03:52:03;;;;;;;;;;;4.90;99.90;;;;;;5116385;28;19915;-55
2021/01/18 03:54:29;;;;;;;;;;;4.90;99.90;;;;;;5116784;28;20229;-55
2021/01/18 03:56:54;;;;;;;;;;;4.90;99.90;;;;;;5116698;28;19911;-55
2021/01/18 03:59:20;;;;;;;;;;;5.00;99.90;;;;;;5116562;28;19911;-55
2021/01/18 04:01:45;;;;;;;;;;;5.00;99.90;;;;;;5116549;28;19965;-55
2021/01/18 04:04:11;;;;;;;;;;;5.00;99.90;;;;;;5116784;28;19907;-55
2021/01/18 04:06:39;;;;;;;;;;;5.10;99.90;;;;;;5116524;28;19927;-55
2021/01/18 04:09:04;;;;;;;;;;;5.10;99.90;;;;;;5116651;28;19965;-55
2021/01/18 04:11:30;;;;;;;;;;;5.00;99.90;;;;;;5116328;28;20230;-55
2021/01/18 04:13:56;;;;;;;;;;;5.00;99.90;;;;;;5116194;28;20332;-55
2021/01/18 04:16:21;;;;;;;;;;;5.00;99.90;;;;;;5115921;28;19950;-55
2021/01/18 04:18:47;;;;;;;;;;;5.00;99.90;;;;;;5116598;28;20315;-55
2021/01/18 04:21:15;;;;;;;;;;;5.10;99.90;;;;;;5116215;28;19918;-55
2021/01/18 04:23:40;;;;;;;;;;;5.00;99.90;;;;;;5116666;28;19908;-55
2021/01/18 04:26:05;;;;;;;;;;;5.10;99.90;;;;;;5116314;28;19961;-55
2021/01/18 04:28:31;;;;;;;;;;;5.10;99.90;;;;;;5097853;28;20226;-55
2021/01/18 04:30:56;;;;;;;;;;;5.30;99.90;;;;;;5116238;28;19916;-54
2021/01/18 04:33:25;;;;;;;;;;;5.50;99.90;;;;;;5116277;28;19912;-55
2021/01/18 04:35:50;;;;;;;;;;;5.50;99.90;;;;;;5116154;28;19961;-55
2021/01/18 04:38:16;;;;;;;;;;;5.60;99.90;;;;;;5116311;28;19907;-55
2021/01/18 04:40:42;;;;;;;;;;;5.70;99.90;;;;;;5116094;28;19993;-55
2021/01/18 04:43:09;;;;;;;;;;;5.70;99.90;;;;;;5116143;28;19914;-55
2021/01/18 04:45:35;;;;;;;;;;;5.70;99.90;;;;;;5116242;28;19903;-55
2021/01/18 04:48:01;;;;;;;;;;;5.70;99.90;;;;;;5119174;28;19908;-55
2021/01/18 04:50:27;;;;;;;;;;;5.80;99.90;;;;;;5120202;28;19907;-55
2021/01/18 04:52:54;;;;;;;;;;;5.80;99.90;;;;;;5120089;28;19916;-55
2021/01/18 04:55:38;;;;;;;;;;;5.80;99.90;;;;;;5120028;28;19904;-55
2021/01/18 04:58:11;;;;;;;;;;;5.80;99.90;;;;;;5119617;28;19976;-54
2021/01/18 05:00:46;;;;;;;;;;;5.70;99.90;;;;;;5119759;28;19915;-55
2021/01/18 05:03:12;;;;;;;;;;;5.70;99.90;;;;;;5119557;28;19950;-55
2021/01/18 05:05:49;;;;;;;;;;;5.60;99.90;;;;;;5119313;28;19904;-55
2021/01/18 05:08:34;;;;;;;;;;;5.60;99.90;;;;;;5119710;28;19957;-55
2021/01/18 05:11:00;;;;;;;;;;;5.60;99.90;;;;;;5119558;28;19911;-54
2021/01/18 05:13:26;;;;;;;;;;;5.70;99.90;;;;;;5119518;28;19998;-55
2021/01/18 05:15:53;;;;;;;;;;;5.80;99.90;;;;;;5119413;28;19930;-55
2021/01/18 05:18:20;;;;;;;;;;;5.70;99.90;;;;;;5119577;28;19957;-55
2021/01/18 05:20:46;;;;;;;;;;;5.70;99.90;;;;;;5118966;28;19903;-54
2021/01/18 05:23:11;;;;;;;;;;;5.70;99.90;;;;;;5119733;28;20262;-55
2021/01/18 05:25:37;;;;;;;;;;;5.70;99.90;;;;;;5106281;28;19915;-55
2021/01/18 05:28:09;;;;;;;;;;;5.60;99.90;;;;;;5099117;28;19908;-55
2021/01/18 05:30:35;;;;;;;;;;;5.60;99.90;;;;;;5099019;28;19998;-55
2021/01/18 05:33:02;;;;;;;;;;;5.50;99.90;;;;;;5080655;28;19947;-55
2021/01/18 05:35:27;;;;;;;;;;;5.50;99.90;;;;;;5099089;28;20293;-55
2021/01/18 05:38:12;;;;;;;;;;;5.50;99.90;;;;;;5098861;28;19911;-55
2021/01/18 05:40:48;;;;;;;;;;;5.50;99.90;;;;;;5098942;28;19965;-55
2021/01/18 05:43:14;;;;;;;;;;;5.40;99.90;;;;;;5098465;28;19904;-55
2021/01/18 05:45:40;;;;;;;;;;;5.40;99.90;;;;;;5097480;28;19916;-55
2021/01/18 05:48:07;;;;;;;;;;;5.40;99.90;;;;;;5098080;28;19904;-55
2021/01/18 05:50:33;;;;;;;;;;;5.40;99.90;;;;;;5098552;28;19915;-55
2021/01/18 05:52:59;;;;;;;;;;;5.40;99.90;;;;;;5097791;28;19916;-55
2021/01/18 05:55:26;;;;;;;;;;;5.40;99.90;;;;;;5098225;28;19915;-56
2021/01/18 05:57:53;;;;;;;;;;;5.40;99.90;;;;;;5097575;28;19911;-56
2021/01/18 06:00:25;;;;;;;;;;;5.40;99.90;;;;;;5097931;28;19904;-56
2021/01/18 06:02:50;;;;;;;;;;;5.40;99.90;;;;;;5098082;28;19915;-56
2021/01/18 06:05:16;;;;;;;;;;;5.30;99.90;;;;;;5098223;28;19908;-56
2021/01/18 06:07:42;;;;;;;;;;;5.30;99.90;;;;;;5098043;28;19908;-56
2021/01/18 06:10:08;;;;;;;;;;;5.30;99.90;;;;;;5098216;28;19908;-56
2021/01/18 06:12:36;;;;;;;;;;;5.30;99.90;;;;;;5097757;28;19938;-56
2021/01/18 06:15:08;;;;;;;;;;;5.40;99.90;;;;;;5097937;28;19955;-56
2021/01/18 06:17:36;;;;;;;;;;;5.40;99.90;;;;;;5097851;28;19904;-56
2021/01/18 06:20:02;;;;;;;;;;;5.50;99.90;;;;;;5097799;28;20257;-55
2021/01/18 06:22:28;;;;;;;;;;;5.50;99.90;;;;;;5098106;28;19999;-56
2021/01/18 06:24:57;;;;;;;;;;;5.60;99.90;;;;;;5097819;28;19987;-56
2021/01/18 06:27:32;;;;;;;;;;;5.60;99.90;;;;;;5097656;28;19908;-56
2021/01/18 06:29:58;;;;;;;;;;;5.60;99.90;;;;;;5097586;28;19943;-56
2021/01/18 06:32:30;;;;;;;;;;;5.60;99.90;;;;;;5097782;28;20305;-54
2021/01/18 06:35:02;;;;;;;;;;;5.60;99.90;;;;;;5097305;28;19904;-54
2021/01/18 06:37:29;;;;;;;;;;;5.70;99.90;;;;;;5111143;28;19904;-54
2021/01/18 06:39:59;;;;;;;;;;;5.70;99.90;;;;;;5117664;28;19907;-54
2021/01/18 06:42:25;;;;;;;;;;;5.70;99.90;;;;;;5117870;28;19904;-54
2021/01/18 06:44:51;;;;;;;;;;;5.80;99.90;;;;;;5117567;28;19908;-55
2021/01/18 06:47:23;;;;;;;;;;;5.80;99.90;;;;;;5117927;28;19904;-55
2021/01/18 06:49:53;;;;;;;;;;;5.80;99.90;;;;;;5117220;28;19908;-54
2021/01/18 06:52:26;;;;;;;;;;;5.80;99.90;;;;;;5116922;28;19926;-55
2021/01/18 06:54:59;;;;;;;;;;;5.80;99.90;;;;;;5117815;28;19915;-55
2021/01/18 06:58:03;;;;;;;;;;;5.70;99.90;;;;;;5117152;28;19935;-54
2021/01/18 07:00:30;;;;;;;;;;;5.70;99.90;;;;;;5014904;28;19940;-54
2021/01/18 07:02:59;;;;;;;;;;;5.80;99.90;;;;;;5014839;28;19955;-56
2021/01/18 07:05:33;;;;;;;;;;;5.80;99.90;;;;;;5065722;28;20032;-55
2021/01/18 07:08:11;;;;;;;;;;;5.80;99.90;;;;;;5117391;28;19928;-54
2021/01/18 07:10:38;;;;;;;;;;;5.80;99.90;;;;;;5117193;28;19904;-54
2021/01/18 07:13:05;;;;;;;;;;;5.70;99.90;;;;;;5116987;28;19971;-56
2021/01/18 07:15:31;;;;;;;;;;;5.70;99.90;;;;;;5117307;28;19908;-56
2021/01/18 07:18:04;;;;;;;;;;;5.70;99.90;;;;;;5098716;28;19908;-55
2021/01/18 07:20:31;;;;;;;;;;;5.60;99.90;;;;;;5117124;28;20091;-55
2021/01/18 07:23:19;;;;;;;;;;;5.60;99.90;;;;;;5117116;28;19911;-55
2021/01/18 07:25:46;;;;;;;;;;;5.60;99.90;;;;;;5102948;28;20012;-55
2021/01/18 07:28:12;;;;;;;;;;;5.60;99.90;;;;;;5096698;28;19997;-55
2021/01/18 07:30:38;;;;;;;;;;;5.60;99.90;;;;;;5096558;28;19904;-54
2021/01/18 07:33:22;;;;;;;;;;;5.50;99.90;;;;;;5096770;28;20387;-55
2021/01/18 07:35:48;;;;;;;;;;;5.50;99.90;;;;;;5096770;28;19904;-55
2021/01/18 07:38:17;;;;;;;;;;;5.60;99.90;;;;;;5096339;28;20222;-55
2021/01/18 07:41:01;;;;;;;;;;;5.60;99.90;;;;;;5096748;28;19930;-55
2021/01/18 07:43:39;;;;;;;;;;;5.60;99.90;;;;;;5096304;28;19915;-55
2021/01/18 07:46:23;;;;;;;;;;;5.60;99.90;;;;;;5103924;28;19904;-55
2021/01/18 07:48:48;;;;;;;;;;;5.60;99.90;;;;;;5116247;28;20052;-55
2021/01/18 07:51:19;;;;;;;;;;;5.60;99.90;;;;;;5116751;28;19959;-55
2021/01/18 07:53:45;;;;;;;;;;;5.50;99.90;;;;;;5116441;28;19918;-56
2021/01/18 07:56:10;;;;;;;;;;;5.50;99.90;;;;;;5116755;28;19904;-56
2021/01/18 07:58:37;;;;;;;;;;;5.50;99.90;;;;;;5116480;28;19934;-56
2021/01/18 08:01:05;;;;;;;;;;;5.40;99.90;;;;;;5116647;28;19910;-56
2021/01/18 08:03:31;;;;;;;;;;;5.30;99.90;;;;;;5116387;28;19903;-56
2021/01/18 08:06:09;;;;;;;;;;;5.30;99.90;;;;;;5098550;28;19907;-56
2021/01/18 08:08:34;;;;;;;;;;;5.40;99.90;;;;;;5116413;28;19903;-56
2021/01/18 08:11:02;;;;;;;;;;;5.40;99.90;;;;;;5115759;28;20019;-56
2021/01/18 08:13:41;;;;;;;;;;;5.40;99.90;;;;;;5116012;28;19919;-55
2021/01/18 08:16:13;;;;;;;;;;;5.40;99.90;;;;;;5116675;28;19938;-55
2021/01/18 08:18:57;;;;;;;;;;;5.50;99.90;;;;;;5115976;28;19920;-55
2021/01/18 08:21:35;;;;;;;;;;;5.50;99.90;;;;;;5117038;28;20221;-55
2021/01/18 08:24:04;;;;;;;;;;;5.50;99.90;;;;;;5120052;28;19908;-55
2021/01/18 08:26:48;;;;;;;;;;;5.50;99.90;;;;;;5119994;28;19929;-55
2021/01/18 08:29:33;;;;;;;;;;;5.50;99.90;;;;;;5120323;28;19927;-55
2021/01/18 08:32:33;;;;;;;;;;;5.50;99.90;;;;;;5120029;28;19916;-55
2021/01/18 08:35:29;;;;;;;;;;;5.50;99.90;;;;;;5065261;28;19911;-55
2021/01/18 08:37:59;;;;;;;;;;;5.50;99.90;;;;;;5099189;28;19942;-55
2021/01/18 08:40:32;;;;;;;;;;;5.50;99.90;;;;;;5120322;28;19908;-55
2021/01/18 08:42:58;;;;;;;;;;;5.50;99.90;;;;;;5120133;28;19904;-55
2021/01/18 08:45:25;;;;;;;;;;;5.50;99.90;;;;;;5120275;28;19915;-55
2021/01/18 08:47:52;;;;;;;;;;;5.50;99.90;;;;;;5119863;28;20332;-56
2021/01/18 08:50:17;;;;;;;;;;;5.70;99.90;;;;;;5120094;28;19910;-56
2021/01/18 08:52:43;;;;;;;;;;;5.90;99.90;;;;;;5119474;28;20014;-56
2021/01/18 08:55:27;;;;;;;;;;;6.00;99.90;;;;;;5120047;28;19989;-56
2021/01/18 08:57:53;;;;;;;;;;;6.10;99.90;;;;;;5119997;28;19961;-56
2021/01/18 09:00:20;;;;;;;;;;;6.10;99.90;;;;;;5120167;28;20215;-56
2021/01/18 09:02:47;;;;;;;;;;;6.10;99.90;;;;;;5119575;28;20298;-57
2021/01/18 09:05:13;;;;;;;;;;;6.20;99.90;;;;;;5119950;28;20339;-56
2021/01/18 09:07:39;;;;;;;;;;;6.20;99.90;;;;;;5101517;28;19908;-56
2021/01/18 09:10:11;;;;;;;;;;;6.30;99.90;;;;;;5119531;28;20022;-56
2021/01/18 09:12:36;;;;;;;;;;;6.50;99.90;;;;;;5101293;28;20326;-56
2021/01/18 09:15:08;;;;;;;;;;;6.50;99.90;;;;;;5119506;28;19908;-56
2021/01/18 09:17:34;;;;;;;;;;;6.50;99.90;;;;;;5100915;28;19903;-56
2021/01/18 09:20:03;;;;;;;;;;;6.40;99.90;;;;;;5119291;28;19911;-56
2021/01/18 09:22:28;;;;;;;;;;;6.40;99.90;;;;;;5117600;28;19957;-59
2021/01/18 09:24:54;;;;;;;;;;;6.50;99.90;;;;;;5110524;28;20237;-57
2021/01/18 09:27:20;;;;;;;;;;;6.50;99.90;;;;;;5114926;28;19912;-57
2021/01/18 09:30:18;;;;;;;;;;;6.50;99.90;;;;;;5119281;28;19903;-58
2021/01/18 09:32:56;;;;;;;;;;;6.50;99.90;;;;;;5073004;28;19942;-57
2021/01/18 09:35:22;;;;;;;;;;;6.50;99.90;;;;;;5117460;28;20271;-57
2021/01/18 09:37:49;;;;;;;;;;;6.60;99.90;;;;;;5106068;28;19912;-56
2021/01/18 09:40:15;;;;;;;;;;;6.70;99.90;;;;;;5107768;28;20226;-56
2021/01/18 09:42:41;;;;;;;;;;;6.90;99.90;;;;;;5100403;28;19919;-57
2021/01/18 09:45:10;;;;;;;;;;;7.00;99.90;;;;;;5119350;28;19916;-56
2021/01/18 09:47:36;;;;;;;;;;;6.90;99.90;;;;;;5104698;28;19938;-56
2021/01/18 09:50:11;;;;;;;;;;;6.80;99.90;;;;;;5103532;28;19916;-56
2021/01/18 09:52:38;;;;;;;;;;;6.90;99.90;;;;;;5108992;28;20306;-56
2021/01/18 09:55:08;;;;;;;;;;;6.90;99.90;;;;;;5103088;28;19908;-57
2021/01/18 09:57:36;;;;;;;;;;;7.10;99.90;;;;;;5114078;28;19915;-56
2021/01/18 10:00:02;;;;;;;;;;;7.10;99.90;;;;;;5112932;28;20317;-55
2021/01/18 10:02:28;;;;;;;;;;;7.20;99.90;;;;;;5115180;27;19953;-56
2021/01/18 10:04:53;;;;;;;;;;;7.10;99.90;;;;;;5118690;28;19997;-55
2021/01/18 10:07:21;;;;;;;;;;;7.10;99.90;;;;;;5117262;28;19908;-56
2021/01/18 10:09:47;;;;;;;;;;;7.30;99.90;;;;;;5118357;28;19904;-56
2021/01/18 10:12:13;;;;;;;;;;;7.30;99.90;;;;;;5116979;28;20324;-56
2021/01/18 10:14:48;;;;;;;;;;;7.30;99.90;;;;;;5118567;28;19969;-55
2021/01/18 10:17:14;;;;;;;;;;;7.30;99.90;;;;;;5118003;28;19999;-56
2021/01/18 10:19:41;;;;;;;;;;;7.30;99.90;;;;;;5116868;28;19912;-56
2021/01/18 10:22:19;;;;;;;;;;;7.30;99.90;;;;;;5118115;28;19946;-56
2021/01/18 10:24:54;;;;;;;;;;;7.30;99.90;;;;;;5112593;28;19982;-57
2021/01/18 10:27:26;;;;;;;;;;;7.40;99.90;;;;;;5097886;28;19973;-57
2021/01/18 10:30:07;;;;;;;;;;;7.40;99.90;;;;;;5097631;28;20252;-57
2021/01/18 10:32:42;;;;;;;;;;;7.40;99.90;;;;;;5097336;28;19911;-57
2021/01/18 10:35:29;;;;;;;;;;;7.70;99.90;;;;;;5097295;28;19904;-57
2021/01/18 10:38:14;;;;;;;;;;;8.00;99.90;;;;;;5114304;28;19903;-57
2021/01/18 10:40:40;;;;;;;;;;;8.20;99.90;;;;;;5117611;28;19911;-56
2021/01/18 10:43:06;;;;;;;;;;;7.90;99.90;;;;;;5117946;28;20299;-56
2021/01/18 10:45:32;;;;;;;;;;;7.80;99.90;;;;;;5117106;28;19908;-57
2021/01/18 10:47:58;;;;;;;;;;;7.80;99.90;;;;;;5115486;28;19935;-57
2021/01/18 10:50:28;;;;;;;;;;;8.00;99.90;;;;;;5109527;28;19951;-57
2021/01/18 10:53:01;;;;;;;;;;;8.10;99.90;;;;;;5113424;28;19916;-56
2021/01/18 10:55:27;;;;;;;;;;;8.00;99.90;;;;;;5110270;28;19951;-57
2021/01/18 10:57:53;;;;;;;;;;;8.10;99.90;;;;;;5112452;28;20394;-57
2021/01/18 11:00:20;;;;;;;;;;;8.00;99.90;;;;;;5104994;28;19918;-57
2021/01/18 11:02:55;;;;;;;;;;;8.20;99.90;;;;;;5110266;27;20263;-57
2021/01/18 11:05:31;;;;;;;;;;;8.20;99.90;;;;;;5114947;28;19952;-57
2021/01/18 11:07:58;;;;;;;;;;;8.20;99.90;;;;;;5098071;28;20214;-57
2021/01/18 11:10:24;;;;;;;;;;;8.20;99.90;;;;;;5115393;28;20279;-57
2021/01/18 11:12:57;;;;;;;;;;;8.30;99.90;;;;;;5112674;28;19912;-56
2021/01/18 11:15:28;;;;;;;;;;;8.30;99.90;;;;;;5097134;28;19908;-56
2021/01/18 11:17:53;;;;;;;;;;;8.20;99.90;;;;;;5100319;28;19908;-56
2021/01/18 11:20:26;;;;;;;;;;;8.40;99.90;;;;;;5095675;28;19930;-57
2021/01/18 11:22:51;;;;;;;;;;;8.40;99.90;;;;;;5109220;28;19903;-57
2021/01/18 11:25:17;;;;;;;;;;;8.10;99.90;;;;;;5106545;28;20314;-56
2021/01/18 11:27:43;;;;;;;;;;;8.20;99.90;;;;;;5096701;28;19915;-57
2021/01/18 11:30:09;;;;;;;;;;;8.40;99.90;;;;;;5082008;28;20263;-56
2021/01/18 11:32:34;;;;;;;;;;;8.30;99.90;;;;;;5107416;28;19927;-57
2021/01/18 11:35:00;;;;;;;;;;;8.40;99.90;;;;;;5109840;28;19912;-57
2021/01/18 11:37:25;;;;;;;;;;;8.50;99.90;;;;;;5086392;28;19919;-57
2021/01/18 11:39:51;;;;;;;;;;;8.70;99.90;;;;;;5115523;28;19912;-57
2021/01/18 11:42:16;;;;;;;;;;;8.60;99.90;;;;;;5098526;28;19916;-56
2021/01/18 11:44:42;;;;;;;;;;;8.40;99.90;;;;;;5096024;28;19912;-57
2021/01/18 11:47:07;;;;;;;;;;;8.50;99.90;;;;;;5112329;28;19914;-57
2021/01/18 11:49:35;;;;;;;;;;;8.50;99.90;;;;;;5117125;28;19907;-57
2021/01/18 11:52:01;;;;;;;;;;;8.60;99.90;;;;;;5116453;28;20027;-57
2021/01/18 11:54:26;;;;;;;;;;;8.60;99.90;;;;;;5116649;28;19916;-57
2021/01/18 11:56:52;;;;;;;;;;;8.60;99.90;;;;;;5099606;28;19969;-57
2021/01/18 11:59:17;;;;;;;;;;;8.40;99.90;;;;;;5120814;28;19912;-57
2021/01/18 12:01:43;;;;;;;;;;;8.50;99.90;;;;;;5102587;28;19908;-57
2021/01/18 12:04:09;;;;;;;;;;;8.40;99.90;;;;;;5121333;28;20279;-57
2021/01/18 12:06:35;;;;;;;;;;;8.50;99.90;;;;;;5120596;28;19908;-57
2021/01/18 12:09:01;;;;;;;;;;;8.40;99.90;;;;;;5120846;28;19956;-58
2021/01/18 12:11:27;;;;;;;;;;;8.40;99.90;;;;;;5120828;28;19916;-57
2021/01/18 12:13:52;;;;;;;;;;;8.40;99.90;;;;;;5121064;28;19908;-57
2021/01/18 12:16:25;;;;;;;;;;;8.50;99.90;;;;;;5117288;28;20329;-56
2021/01/18 12:18:51;;;;;;;;;;;8.40;99.90;;;;;;5105320;28;19922;-58
2021/01/18 12:21:16;;;;;;;;;;;8.40;99.90;;;;;;5065786;28;19998;-62
2021/01/18 12:23:42;;;;;;;;;;;8.50;99.90;;;;;;5118728;28;20002;-60
2021/01/18 12:26:07;;;;;;;;;;;8.60;99.90;;;;;;5113339;28;19919;-60
2021/01/18 12:28:33;;;;;;;;;;;8.70;99.90;;;;;;5106887;28;19920;-60
2021/01/18 12:30:59;;;;;;;;;;;8.50;99.90;;;;;;5095768;28;19912;-59
2021/01/18 12:33:24;;;;;;;;;;;8.30;99.90;;;;;;5117536;28;20022;-59
2021/01/18 12:35:50;;;;;;;;;;;8.30;99.90;;;;;;5115383;28;19916;-59
2021/01/18 12:38:16;;;;;;;;;;;8.40;99.90;;;;;;5110701;28;20362;-59
2021/01/18 12:40:41;;;;;;;;;;;8.40;99.90;;;;;;5116095;28;20075;-58
2021/01/18 12:43:07;;;;;;;;;;;8.40;99.90;;;;;;5115494;28;19954;-57
2021/01/18 12:45:32;;;;;;;;;;;8.40;99.90;;;;;;5116866;28;19915;-57
2021/01/18 12:47:58;;;;;;;;;;;8.30;99.90;;;;;;5109669;28;19912;-56
2021/01/18 12:50:23;;;;;;;;;;;8.40;99.90;;;;;;5110722;28;20267;-57
2021/01/18 12:52:50;;;;;;;;;;;8.40;99.90;;;;;;5109159;28;19920;-57
2021/01/18 12:55:16;;;;;;;;;;;8.30;99.90;;;;;;5107454;28;20230;-58
2021/01/18 12:57:41;;;;;;;;;;;8.30;99.90;;;;;;5100141;28;19912;-58
2021/01/18 13:00:08;;;;;;;;;;;8.30;99.90;;;;;;5107628;28;19955;-57
2021/01/18 13:02:33;;;;;;;;;;;8.40;99.90;;;;;;5099586;28;19915;-57
2021/01/18 13:04:59;;;;;;;;;;;8.50;99.90;;;;;;5115410;28;19918;-57
2021/01/18 13:07:24;;;;;;;;;;;8.50;99.90;;;;;;5087419;28;19916;-57
2021/01/18 13:09:50;;;;;;;;;;;8.40;99.90;;;;;;5106402;28;19912;-57
2021/01/18 13:12:15;;;;;;;;;;;8.30;99.90;;;;;;5107834;28;19908;-57
2021/01/18 13:14:41;;;;;;;;;;;8.40;99.90;;;;;;5107845;28;20222;-57
2021/01/18 13:17:06;;;;;;;;;;;8.40;99.90;;;;;;5115275;28;20337;-57
2021/01/18 13:19:32;;;;;;;;;;;8.40;99.90;;;;;;5114000;28;19918;-57
2021/01/18 13:21:58;;;;;;;;;;;8.40;99.90;;;;;;5117749;28;19982;-57
2021/01/18 13:24:24;;;;;;;;;;;8.40;99.90;;;;;;5115866;28;20298;-58
2021/01/18 13:26:49;;;;;;;;;;;8.40;99.90;;;;;;5117069;28;20054;-58
2021/01/18 13:29:15;;;;;;;;;;;8.30;99.90;;;;;;5081111;28;19916;-57
2021/01/18 13:31:42;;;;;;;;;;;8.30;99.90;;;;;;5109580;28;19922;-57
2021/01/18 13:34:08;;;;;;;;;;;8.30;99.90;;;;;;5100971;28;19971;-58
2021/01/18 13:36:34;;;;;;;;;;;8.20;99.90;;;;;;5116201;28;19964;-57
2021/01/18 13:39:00;;;;;;;;;;;8.30;99.90;;;;;;5115701;28;20270;-57
2021/01/18 13:41:26;;;;;;;;;;;8.30;99.90;;;;;;5105823;28;20003;-57
2021/01/18 13:43:52;;;;;;;;;;;8.30;99.90;;;;;;5109982;28;19907;-57
2021/01/18 13:46:19;;;;;;;;;;;8.40;99.90;;;;;;5111064;28;19947;-58
2021/01/18 13:48:45;;;;;;;;;;;8.40;99.90;;;;;;5109977;28;19911;-57
2021/01/18 13:51:14;;;;;;;;;;;8.40;99.90;;;;;;5120183;27;19912;-58
2021/01/18 13:53:40;;;;;;;;;;;8.50;99.90;;;;;;5098334;27;20011;-56
2021/01/18 13:56:06;;;;;;;;;;;8.60;99.90;;;;;;5116710;27;19951;-57
2021/01/18 13:58:31;;;;;;;;;;;8.60;99.90;;;;;;5109309;27;20013;-58
2021/01/18 14:00:57;;;;;;;;;;;8.70;99.90;;;;;;5106379;28;20324;-58
2021/01/18 14:03:22;;;;;;;;;;;8.60;99.90;;;;;;5093698;28;19947;-57
2021/01/18 14:05:48;;;;;;;;;;;8.60;99.90;;;;;;5113894;27;20002;-58
2021/01/18 14:08:13;;;;;;;;;;;8.70;99.90;;;;;;5107021;28;19908;-57
2021/01/18 14:10:39;;;;;;;;;;;8.70;99.90;;;;;;5098843;28;20270;-58
2021/01/18 14:13:05;;;;;;;;;;;8.70;99.90;;;;;;5116589;28;19911;-58
2021/01/18 14:15:30;;;;;;;;;;;8.70;99.90;;;;;;5116428;28;19922;-58
2021/01/18 14:17:56;;;;;;;;;;;8.70;99.90;;;;;;5111415;28;20218;-57
2021/01/18 14:20:21;;;;;;;;;;;8.80;99.90;;;;;;5108990;28;20200;-57
2021/01/18 14:22:47;;;;;;;;;;;8.80;99.90;;;;;;5112395;28;19938;-58
2021/01/18 14:25:12;;;;;;;;;;;8.90;99.90;;;;;;5111611;28;20300;-57
2021/01/18 14:27:42;;;;;;;;;;;8.90;99.90;;;;;;5109463;28;20306;-57
2021/01/18 14:30:07;;;;;;;;;;;8.90;99.90;;;;;;5114910;28;19908;-58
2021/01/18 14:32:33;;;;;;;;;;;8.80;99.90;;;;;;5111607;27;19908;-58
2021/01/18 14:34:58;;;;;;;;;;;8.90;99.90;;;;;;5115006;27;20283;-58
2021/01/18 14:37:24;;;;;;;;;;;8.90;99.90;;;;;;5108851;28;19916;-58
2021/01/18 14:39:49;;;;;;;;;;;9.00;99.90;;;;;;5113904;28;19911;-58